Terminal Aerodrome Forecast
Issued by NWS Cleveland, OH

Home | Current Version | Previous Version | Graphics & Text | Print | Product List | Glossary Off
Versions: 1 2 3 4 5 6 7 8 9 10 11 12 13 14 15 16 17 18 19 20 21 22 23 24 25

309
FTUS41 KCLE 210523
TAFTOL
TAF
KTOL 210523Z 2106/2206 25005KT P6SM SCT040 OVC070
      TEMPO 2106/2109 4SM -SHRA BR BKN020 OVC050
     FM210900 30011KT 3SM -SHRA BR OVC008
     FM211500 32012KT P6SM VCSH OVC015
     FM211900 36010KT P6SM OVC035
     FM220000 05006KT P6SM SCT040 OVC200=

USA.gov is the U.S. government's official web portal to all federal, state and local government web resources and services.